createdAt,value
2022-08-09T07:20:39.659Z,18.20
2022-08-09T07:23:19.246Z,18.00
2022-08-09T07:25:46.397Z,18.20
2022-08-09T07:28:19.188Z,18.30
2022-08-09T07:30:54.106Z,18.30
2022-08-09T07:33:21.964Z,18.50
2022-08-09T07:35:54.331Z,18.50
2022-08-09T07:38:21.501Z,18.60
2022-08-09T07:41:10.013Z,18.80
2022-08-09T07:43:41.346Z,19.00
2022-08-09T07:46:17.282Z,19.10
2022-08-09T07:48:46.453Z,19.30
2022-08-09T07:52:05.215Z,19.50
2022-08-09T07:54:12.270Z,19.50
2022-08-09T07:56:48.947Z,19.60
2022-08-09T07:59:33.689Z,19.60
2022-08-09T08:02:03.514Z,19.60
2022-08-09T08:04:32.980Z,19.60
2022-08-09T08:07:15.217Z,19.70
2022-08-09T08:09:53.360Z,19.70
2022-08-09T08:12:24.861Z,19.80
2022-08-09T08:14:54.891Z,19.90
2022-08-09T08:17:35.556Z,19.90
2022-08-09T08:20:12.697Z,19.90
2022-08-09T08:22:40.362Z,20.00
2022-08-09T08:25:09.522Z,20.00
2022-08-09T08:27:41.116Z,20.00
2022-08-09T08:30:11.174Z,20.00
2022-08-09T08:32:41.701Z,20.00
2022-08-09T08:35:22.205Z,19.90
2022-08-09T08:38:02.145Z,20.00
2022-08-09T08:40:31.740Z,19.90
2022-08-09T08:42:59.064Z,19.90
2022-08-09T08:45:37.076Z,20.00
2022-08-09T08:48:05.308Z,19.90
2022-08-09T08:50:32.229Z,20.00
2022-08-09T08:53:00.443Z,20.00
2022-08-09T08:55:27.687Z,20.00
2022-08-09T08:57:56.578Z,20.00
2022-08-09T09:00:27.919Z,20.00
2022-08-09T09:02:59.462Z,20.00
2022-08-09T09:05:57.550Z,20.00
2022-08-09T09:08:30.347Z,20.00
2022-08-09T09:10:58.455Z,20.00
2022-08-09T09:13:25.162Z,20.00
2022-08-09T09:16:09.054Z,20.00
2022-08-09T09:18:36.706Z,20.00
2022-08-09T09:21:03.572Z,20.10
2022-08-09T09:23:37.888Z,20.20
2022-08-09T09:26:12.304Z,20.30
2022-08-09T09:29:03.539Z,20.30
2022-08-09T09:32:06.542Z,20.40
2022-08-09T09:34:14.727Z,20.50
2022-08-09T09:36:46.780Z,20.70
2022-08-09T09:39:20.018Z,20.80
2022-08-09T09:41:49.412Z,20.90
2022-08-09T09:44:25.532Z,20.90
2022-08-09T09:46:52.857Z,20.90
2022-08-09T09:49:31.927Z,20.90
2022-08-09T09:52:16.429Z,21.00
2022-08-09T09:54:55.971Z,21.10
2022-08-09T09:58:04.183Z,21.20
2022-08-09T10:00:09.592Z,21.30
2022-08-09T10:02:38.427Z,21.40
2022-08-09T10:05:06.723Z,21.40
2022-08-09T10:07:33.729Z,21.40
2022-08-09T10:10:03.119Z,21.50
2022-08-09T10:12:31.443Z,21.60
2022-08-09T10:14:58.334Z,21.70
2022-08-09T10:17:51.254Z,21.80
2022-08-09T10:20:15.209Z,21.80
2022-08-09T10:22:42.289Z,21.90
2022-08-09T10:25:12.361Z,22.00
2022-08-09T10:27:45.355Z,22.10
2022-08-09T10:33:09.917Z,22.20
2022-08-09T10:35:56.648Z,22.20
2022-08-09T10:38:54.364Z,22.40
2022-08-09T10:41:14.557Z,22.40
2022-08-09T10:43:50.777Z,22.50
2022-08-09T10:46:25.751Z,22.50
2022-08-09T10:48:54.063Z,22.60
2022-08-09T10:51:20.750Z,22.70
2022-08-09T10:53:56.817Z,22.70
2022-08-09T10:56:24.024Z,22.80
2022-08-09T10:58:54.110Z,22.90
2022-08-09T11:03:14.778Z,22.80
2022-08-09T11:04:08.069Z,22.90
2022-08-09T11:06:54.870Z,22.90
2022-08-09T11:09:24.723Z,23.00
2022-08-09T11:12:02.144Z,23.10
2022-08-09T11:14:32.308Z,23.20
2022-08-09T11:16:59.053Z,23.20
2022-08-09T11:20:10.716Z,23.40
2022-08-09T11:22:21.563Z,23.40
2022-08-09T11:24:52.739Z,23.50
2022-08-09T11:27:25.409Z,23.60
2022-08-09T11:30:32.778Z,23.70
2022-08-09T11:32:53.040Z,23.60
2022-08-09T11:35:26.353Z,23.70
2022-08-09T11:38:01.859Z,23.70
2022-08-09T11:40:30.094Z,23.90
2022-08-09T11:42:57.608Z,23.80
2022-08-09T11:45:37.582Z,23.80
2022-08-09T11:48:16.065Z,23.70
2022-08-09T11:51:19.241Z,23.70
2022-08-09T11:53:55.232Z,23.80
2022-08-09T11:56:41.380Z,23.80
2022-08-09T11:59:11.687Z,23.90
2022-08-09T20:16:54.000Z,21.10
2022-08-09T20:19:48.599Z,20.80
2022-08-09T20:22:10.084Z,20.80
2022-08-09T20:24:41.095Z,20.80
2022-08-09T20:27:08.935Z,20.90
2022-08-09T20:29:39.082Z,20.80
2022-08-09T20:32:29.771Z,20.80
2022-08-09T20:34:52.745Z,20.80
2022-08-09T20:37:21.425Z,20.80
2022-08-09T20:40:16.122Z,20.90
2022-08-09T20:42:37.672Z,20.80
2022-08-09T20:46:00.802Z,20.80
2022-08-09T20:47:51.906Z,20.70
2022-08-09T20:50:47.292Z,20.70
2022-08-09T20:53:05.490Z,20.70
2022-08-09T20:56:00.464Z,20.60
2022-08-09T20:58:28.648Z,20.60
2022-08-09T21:01:14.342Z,20.50
2022-08-09T21:05:49.449Z,20.50
2022-08-09T21:06:33.650Z,20.50
2022-08-09T21:09:01.981Z,20.50
2022-08-09T21:14:16.685Z,20.50
2022-08-09T21:16:45.738Z,20.40
2022-08-09T21:20:18.436Z,20.40
2022-08-09T21:21:59.487Z,20.30
2022-08-09T21:24:28.918Z,20.30
2022-08-09T21:26:59.249Z,20.30
2022-08-09T21:29:25.943Z,20.20
2022-08-09T21:31:53.257Z,20.10
2022-08-09T21:34:28.879Z,20.10
2022-08-09T21:36:56.720Z,20.10
2022-08-09T21:39:28.383Z,20.10
2022-08-09T21:42:10.393Z,20.00
2022-08-09T21:44:37.921Z,20.00
2022-08-09T21:47:04.893Z,19.90
2022-08-09T21:49:40.429Z,19.90
2022-08-09T21:52:17.627Z,19.80
2022-08-09T21:54:46.339Z,19.80
2022-08-09T21:57:25.273Z,19.80
2022-08-09T22:00:03.326Z,19.70
2022-08-09T22:02:40.258Z,19.70
2022-08-09T22:05:22.734Z,19.60
2022-08-09T22:07:52.262Z,19.60
2022-08-09T22:10:23.233Z,19.60
2022-08-09T22:12:50.895Z,19.60
2022-08-09T22:15:20.730Z,19.60
2022-08-09T22:17:50.403Z,19.50
2022-08-09T22:20:27.430Z,19.50
2022-08-09T22:22:57.860Z,19.50
2022-08-09T22:26:06.843Z,19.40
2022-08-09T22:28:11.409Z,19.40
2022-08-09T22:30:39.153Z,19.30
2022-08-09T22:33:17.345Z,19.30
2022-08-09T22:36:02.019Z,19.30
2022-08-09T22:38:30.219Z,19.30
2022-08-09T22:40:58.561Z,19.20
2022-08-09T22:44:02.605Z,19.20
2022-08-09T22:48:10.181Z,19.20
2022-08-09T22:48:59.953Z,19.10
2022-08-09T22:51:38.319Z,19.10
2022-08-09T22:54:05.192Z,19.10
2022-08-09T22:56:35.021Z,19.10
2022-08-09T22:59:06.003Z,19.10
2022-08-09T23:01:49.608Z,19.10
2022-08-09T23:04:16.411Z,19.00
2022-08-09T23:07:02.736Z,19.00
2022-08-09T23:09:29.483Z,18.90
2022-08-09T23:11:56.130Z,18.90
